Pittsford, Vermont
Current Conditions -  °F | °C
As of 9:35 AM on Saturday 20 Dec 2014 (Local Time) from KRUT Reporting Station
Clear Clear  
Wind Chill: 16°   Ceiling: Unl
Heat Index: 16°   Visibility: 10mi
Dew Point: 10°   Wind: 0mph
Humidity: 79%   Direction: NA
Pressure: 30.29"   Gusts: NA
Location:  43.71°N, 73.03°W
Report Text: KRUT 201435Z 00000KT 10SM CLR M09/M12 A3029 RMK AO1
Loading
Personal Weather Stations






























Interactive Weather Map New forecast layout! Learn more

10-Day Weather Forecast

Advertisements
Track Severe Weather on mobile